Time;durP1;ratioP1;P1;durP2;ratioP2;P2;SDS_P1;SDS_P2;PMS_P1;PMS_P2;Temp;Humidity;BMP_temperature;BMP_pressure;BME280_temperature;BME280_humidity;BME280_pressure;Samples;Min_cycle;Max_cycle;Signal;HPM_P1;HPM_P2
2021/04/09 00:00:41;;;;;;;4.35;2.65;;;5.60;75.20;;;;;;5020447;28;20079;-73
2021/04/09 00:03:07;;;;;;;9.50;2.70;;;5.60;75.30;;;;;;5023913;28;20064;-73
2021/04/09 00:05:33;;;;;;;5.47;2.90;;;5.60;75.50;;;;;;5019780;28;20428;-73
2021/04/09 00:07:58;;;;;;;5.70;2.78;;;5.60;76.00;;;;;;5024767;28;20029;-73
2021/04/09 00:10:25;;;;;;;4.93;2.72;;;5.60;75.50;;;;;;5024283;28;20053;-72
2021/04/09 00:12:51;;;;;;;6.40;2.80;;;5.60;75.50;;;;;;5022910;28;20096;-73
2021/04/09 00:15:17;;;;;;;5.10;2.72;;;5.60;75.00;;;;;;5019499;28;20106;-73
2021/04/09 00:17:44;;;;;;;4.90;2.70;;;5.60;75.20;;;;;;5019224;28;20026;-73
2021/04/09 00:20:13;;;;;;;4.72;2.95;;;5.50;75.30;;;;;;5019748;28;20033;-73
2021/04/09 00:22:39;;;;;;;6.00;2.67;;;5.50;75.40;;;;;;5020563;28;20028;-73
2021/04/09 00:25:06;;;;;;;3.97;3.00;;;5.50;75.10;;;;;;5026249;28;20468;-73
2021/04/09 00:27:32;;;;;;;5.15;2.92;;;5.50;75.00;;;;;;5017045;28;20026;-74
2021/04/09 00:29:58;;;;;;;3.22;2.38;;;5.50;74.80;;;;;;5026435;28;20049;-73
2021/04/09 00:32:23;;;;;;;6.85;3.15;;;5.50;74.80;;;;;;5034162;28;20097;-73
2021/04/09 00:34:49;;;;;;;4.57;3.08;;;5.50;75.00;;;;;;5028349;28;20036;-73
2021/04/09 00:37:14;;;;;;;4.40;2.83;;;5.40;75.10;;;;;;5016766;28;20033;-73
2021/04/09 00:39:40;;;;;;;4.60;2.88;;;5.40;75.20;;;;;;5020008;28;20032;-73
2021/04/09 00:42:05;;;;;;;3.75;2.65;;;5.40;75.00;;;;;;5016625;28;20029;-73
2021/04/09 00:44:31;;;;;;;7.30;2.95;;;5.40;75.20;;;;;;5027819;28;20116;-73
2021/04/09 00:46:56;;;;;;;5.07;2.70;;;5.40;75.30;;;;;;5025560;28;20022;-73
2021/04/09 00:49:22;;;;;;;7.25;3.42;;;5.40;75.30;;;;;;5030659;28;20132;-73
2021/04/09 00:51:47;;;;;;;6.90;3.05;;;5.30;76.00;;;;;;5018212;28;20033;-73
2021/04/09 00:54:13;;;;;;;6.15;2.80;;;5.40;76.00;;;;;;5027025;28;20029;-73
2021/04/09 00:56:38;;;;;;;5.38;3.10;;;5.30;76.20;;;;;;5017292;28;20037;-73
2021/04/09 00:59:04;;;;;;;8.63;3.53;;;5.30;76.20;;;;;;5020216;28;20029;-73
2021/04/09 01:01:30;;;;;;;8.00;3.17;;;5.30;76.60;;;;;;5022863;28;20091;-73
2021/04/09 01:03:56;;;;;;;7.35;3.53;;;5.30;76.10;;;;;;5029906;28;20033;-73
2021/04/09 01:06:22;;;;;;;9.73;3.70;;;5.30;76.40;;;;;;5028100;28;20650;-73
2021/04/09 01:08:49;;;;;;;5.88;3.22;;;5.30;76.70;;;;;;5025475;28;20058;-73
2021/04/09 01:11:15;;;;;;;6.03;3.67;;;5.30;76.50;;;;;;5023057;28;20109;-72
2021/04/09 01:13:43;;;;;;;6.80;3.50;;;5.20;76.60;;;;;;5017467;28;20034;-73
2021/04/09 01:16:15;;;;;;;7.20;3.72;;;5.20;76.80;;;;;;5026401;28;20052;-73
2021/04/09 01:18:44;;;;;;;7.13;3.65;;;5.20;76.80;;;;;;5028941;28;20057;-73
2021/04/09 01:21:25;;;;;;;7.18;3.78;;;5.20;76.90;;;;;;5026517;28;20080;-73
2021/04/09 01:24:09;;;;;;;7.88;3.65;;;5.20;76.90;;;;;;5018174;28;20527;-73
2021/04/09 01:27:11;;;;;;;9.95;3.55;;;5.20;77.20;;;;;;5023267;28;20042;-73
2021/04/09 01:30:11;;;;;;;8.43;3.35;;;5.10;77.00;;;;;;5019763;28;20044;-73
2021/04/09 01:32:37;;;;;;;5.07;3.40;;;5.20;76.90;;;;;;5014196;28;20030;-73
2021/04/09 01:35:14;;;;;;;6.40;3.40;;;5.10;76.60;;;;;;5023074;28;20026;-73
2021/04/09 01:37:46;;;;;;;9.10;3.45;;;5.10;76.20;;;;;;5029491;28;20029;-72
2021/04/09 01:40:17;;;;;;;8.45;3.30;;;5.10;76.50;;;;;;5026607;28;20120;-73
2021/04/09 01:42:48;;;;;;;8.50;3.03;;;5.20;76.10;;;;;;5028733;28;20043;-73
2021/04/09 01:45:15;;;;;;;9.23;3.33;;;5.10;76.10;;;;;;5022751;28;20029;-74
2021/04/09 01:47:43;;;;;;;7.85;3.22;;;5.10;76.00;;;;;;5017945;28;20471;-72
2021/04/09 01:50:18;;;;;;;7.03;2.72;;;5.10;75.90;;;;;;5020114;28;20113;-72
2021/04/09 01:52:46;;;;;;;11.02;2.95;;;5.10;75.80;;;;;;5018285;28;20029;-73
2021/04/09 01:55:13;;;;;;;4.28;2.58;;;5.10;76.00;;;;;;5030382;28;20536;-73
2021/04/09 01:57:41;;;;;;;9.43;2.67;;;5.00;76.20;;;;;;5028929;28;20057;-73
2021/04/09 02:00:12;;;;;;;5.07;3.10;;;5.00;76.10;;;;;;5020926;28;20032;-73
2021/04/09 02:02:38;;;;;;;3.90;2.50;;;5.00;76.10;;;;;;5021701;28;20034;-73
2021/04/09 02:05:05;;;;;;;5.82;3.03;;;5.00;76.20;;;;;;5026315;28;20022;-74
2021/04/09 02:07:31;;;;;;;3.90;2.65;;;5.00;76.10;;;;;;5016051;28;20025;-73
2021/04/09 02:09:58;;;;;;;10.05;3.22;;;5.00;76.00;;;;;;5018908;28;20037;-72
2021/04/09 02:12:24;;;;;;;7.78;2.78;;;5.00;76.20;;;;;;5023069;28;20091;-73
2021/04/09 02:14:55;;;;;;;4.57;2.70;;;5.00;76.10;;;;;;5019309;28;20549;-73
2021/04/09 02:17:22;;;;;;;8.30;2.83;;;4.90;75.90;;;;;;5025313;28;20034;-73
2021/04/09 02:19:47;;;;;;;8.35;2.78;;;5.00;76.10;;;;;;5029290;28;20404;-73
2021/04/09 02:22:14;;;;;;;4.90;2.80;;;4.90;76.20;;;;;;5026378;28;20033;-73
2021/04/09 02:24:39;;;;;;;4.72;3.00;;;4.90;77.20;;;;;;5016045;28;20030;-73
2021/04/09 02:27:08;;;;;;;4.68;2.67;;;4.90;76.50;;;;;;5023154;28;20124;-74
2021/04/09 02:29:34;;;;;;;4.63;2.50;;;4.80;76.60;;;;;;5025355;28;20025;-72
2021/04/09 02:32:00;;;;;;;4.45;2.67;;;4.80;76.40;;;;;;5017440;28;20040;-73
2021/04/09 02:34:29;;;;;;;10.23;3.03;;;4.80;76.60;;;;;;5031030;28;20026;-73
2021/04/09 02:36:55;;;;;;;9.95;3.35;;;4.90;76.70;;;;;;5027177;28;20056;-72
2021/04/09 02:39:26;;;;;;;7.00;2.65;;;4.90;76.20;;;;;;5027774;28;20620;-73
2021/04/09 02:41:57;;;;;;;4.68;2.70;;;4.90;76.30;;;;;;5024850;28;20036;-73
2021/04/09 02:44:22;;;;;;;8.68;3.35;;;4.90;76.50;;;;;;5020997;28;20400;-73
2021/04/09 02:46:57;;;;;;;5.65;2.80;;;4.80;76.60;;;;;;5028044;28;20029;-73
2021/04/09 02:49:39;;;;;;;6.22;2.83;;;4.80;76.40;;;;;;5024220;28;20050;-73
2021/04/09 02:52:05;;;;;;;;;;;4.80;77.00;;;;;;5022203;28;20021;-73
2021/04/09 02:54:33;;;;;;;5.55;2.72;;;4.70;77.10;;;;;;5025893;28;19978;-73
2021/04/09 02:57:00;;;;;;;6.57;2.80;;;4.70;77.00;;;;;;5012955;28;20026;-73
2021/04/09 02:59:28;;;;;;;7.30;3.20;;;4.80;77.00;;;;;;5014061;28;20033;-74
2021/04/09 03:01:54;;;;;;;8.05;3.03;;;4.70;76.80;;;;;;5039576;28;20029;-73
2021/04/09 03:04:20;;;;;;;8.77;2.78;;;4.70;77.10;;;;;;5030553;28;20859;-73
2021/04/09 03:06:46;;;;;;;6.13;2.95;;;4.60;77.60;;;;;;5028100;28;20064;-73
2021/04/09 03:09:12;;;;;;;9.90;3.70;;;4.70;77.40;;;;;;5020956;28;20492;-73
2021/04/09 03:11:42;;;;;;;6.78;3.00;;;4.70;77.50;;;;;;5027198;28;20091;-73
2021/04/09 03:14:08;;;;;;;10.20;3.47;;;4.70;77.40;;;;;;5021771;28;20052;-73
2021/04/09 03:16:47;;;;;;;9.48;3.47;;;4.70;77.60;;;;;;5027821;28;20021;-73
2021/04/09 03:19:13;;;;;;;6.70;3.60;;;4.60;77.60;;;;;;5022106;28;20025;-74
2021/04/09 03:21:39;;;;;;;6.50;2.97;;;4.60;77.40;;;;;;5025178;28;20503;-73
2021/04/09 03:24:05;;;;;;;11.32;3.58;;;4.70;77.60;;;;;;5020123;28;20026;-73
2021/04/09 03:26:31;;;;;;;6.40;3.22;;;4.60;77.90;;;;;;5024806;28;20498;-73
2021/04/09 03:28:56;;;;;;;7.28;3.28;;;4.60;78.20;;;;;;5013925;28;20109;-73
2021/04/09 03:31:22;;;;;;;5.75;3.30;;;4.60;78.10;;;;;;5024056;28;20060;-73
2021/04/09 03:33:47;;;;;;;4.70;2.75;;;4.60;78.10;;;;;;5019068;28;20472;-73
2021/04/09 03:36:13;;;;;;;8.80;2.88;;;4.60;78.40;;;;;;5024951;28;20048;-72
2021/04/09 03:38:38;;;;;;;6.50;3.20;;;4.60;78.30;;;;;;5025236;28;20034;-73
2021/04/09 03:41:04;;;;;;;6.88;3.00;;;4.60;77.90;;;;;;5010202;28;20026;-73
2021/04/09 03:43:29;;;;;;;8.80;3.17;;;4.60;78.30;;;;;;5021892;28;20030;-73
2021/04/09 03:45:55;;;;;;;10.25;4.10;;;4.60;78.00;;;;;;5019241;28;20112;-73
2021/04/09 03:48:20;;;;;;;7.60;3.13;;;4.50;78.30;;;;;;5024324;28;20136;-73
2021/04/09 03:50:46;;;;;;;4.20;2.85;;;4.50;78.60;;;;;;5028329;28;20048;-73
2021/04/09 03:53:11;;;;;;;7.18;3.50;;;4.40;79.00;;;;;;5025017;28;20053;-73
2021/04/09 03:55:37;;;;;;;10.48;3.33;;;4.40;79.10;;;;;;5027083;28;20025;-73
2021/04/09 03:58:02;;;;;;;9.20;3.25;;;4.40;78.80;;;;;;5024312;28;20033;-73
2021/04/09 04:00:28;;;;;;;5.80;3.15;;;4.40;79.80;;;;;;5022407;28;20053;-73
2021/04/09 04:02:54;;;;;;;5.40;2.83;;;4.40;79.30;;;;;;5013812;28;20453;-73
2021/04/09 04:05:20;;;;;;;7.38;3.33;;;4.40;79.00;;;;;;5026476;28;20033;-72
2021/04/09 04:07:45;;;;;;;6.35;3.63;;;4.40;79.30;;;;;;5021628;28;20026;-72
2021/04/09 04:10:12;;;;;;;6.38;3.38;;;4.30;79.20;;;;;;5018367;28;20038;-73
2021/04/09 04:12:37;;;;;;;6.72;3.33;;;4.30;79.30;;;;;;5027912;28;20075;-73
2021/04/09 04:15:05;;;;;;;8.30;2.97;;;4.30;79.80;;;;;;5025065;28;20017;-72
2021/04/09 04:17:30;;;;;;;5.65;3.30;;;4.30;79.50;;;;;;5026102;28;20045;-72
2021/04/09 04:19:56;;;;;;;7.70;3.30;;;4.30;79.80;;;;;;5026414;28;20029;-73
2021/04/09 04:22:24;;;;;;;7.07;3.05;;;4.30;79.80;;;;;;5024583;28;20038;-73
2021/04/09 04:24:49;;;;;;;6.03;3.10;;;4.30;79.80;;;;;;5017734;28;20029;-73
2021/04/09 04:27:15;;;;;;;5.55;3.10;;;4.30;79.80;;;;;;5027758;28;20091;-72
2021/04/09 04:29:40;;;;;;;4.78;2.90;;;4.30;79.50;;;;;;5029659;28;20037;-73
2021/04/09 04:32:07;;;;;;;9.35;3.45;;;4.30;79.60;;;;;;5025736;28;20030;-73
2021/04/09 04:34:32;;;;;;;5.60;3.25;;;4.30;79.60;;;;;;5019787;28;20025;-73
2021/04/09 04:36:58;;;;;;;6.50;3.40;;;4.30;79.90;;;;;;5027922;28;20629;-72
2021/04/09 04:39:24;;;;;;;8.40;3.45;;;4.20;79.90;;;;;;5027126;28;20132;-74
2021/04/09 04:41:49;;;;;;;10.70;3.65;;;4.20;80.10;;;;;;5024624;28;20033;-73
2021/04/09 04:44:15;;;;;;;6.57;3.00;;;4.30;80.10;;;;;;5026426;28;20485;-74
2021/04/09 04:46:41;;;;;;;10.40;3.40;;;4.30;80.00;;;;;;5015100;28;20170;-74
2021/04/09 04:49:06;;;;;;;8.27;3.53;;;4.30;80.20;;;;;;5027938;28;20057;-74
2021/04/09 04:51:32;;;;;;;9.43;3.28;;;4.20;80.50;;;;;;5027757;28;20026;-74
2021/04/09 04:53:58;;;;;;;11.85;3.75;;;4.20;80.20;;;;;;5030020;28;20022;-74
2021/04/09 04:56:23;;;;;;;7.72;3.53;;;4.20;80.10;;;;;;5026768;28;20061;-74
2021/04/09 04:58:49;;;;;;;6.03;3.20;;;4.20;80.00;;;;;;5025549;28;20545;-74
2021/04/09 05:01:14;;;;;;;5.97;3.10;;;4.20;80.50;;;;;;5031168;28;20061;-74
2021/04/09 05:03:44;;;;;;;7.95;3.30;;;4.20;80.80;;;;;;5024417;28;20048;-74
2021/04/09 05:06:10;;;;;;;6.75;3.60;;;4.20;80.50;;;;;;5022632;28;20034;-73
2021/04/09 05:08:39;;;;;;;7.22;4.07;;;4.30;80.50;;;;;;5026396;28;20490;-74
2021/04/09 05:11:04;;;;;;;7.00;3.53;;;4.30;80.40;;;;;;5021321;28;20030;-73
2021/04/09 05:13:30;;;;;;;10.00;3.47;;;4.30;80.10;;;;;;5024860;28;20030;-75
2021/04/09 05:15:55;;;;;;;6.45;4.00;;;4.30;80.20;;;;;;5029817;28;20716;-74
2021/04/09 05:18:21;;;;;;;9.85;3.40;;;4.30;80.30;;;;;;5025699;28;20026;-74
2021/04/09 05:20:46;;;;;;;10.77;3.38;;;4.30;80.20;;;;;;5023023;28;20034;-73
2021/04/09 05:23:12;;;;;;;9.93;3.97;;;4.40;80.20;;;;;;5026001;28;20022;-74
2021/04/09 05:25:37;;;;;;;8.85;3.92;;;4.40;79.80;;;;;;5025898;28;20510;-74
2021/04/09 05:28:04;;;;;;;10.82;4.15;;;4.40;79.90;;;;;;5025521;28;20033;-73
2021/04/09 05:30:38;;;;;;;6.13;3.55;;;4.40;80.00;;;;;;5016479;28;20040;-74
2021/04/09 05:33:03;;;;;;;7.00;4.07;;;4.40;80.00;;;;;;5032655;28;20060;-74
2021/04/09 05:35:29;;;;;;;10.80;3.80;;;4.50;80.00;;;;;;5024743;28;20408;-74
2021/04/09 05:37:54;;;;;;;10.98;4.50;;;4.50;79.40;;;;;;5024949;28;20033;-74
2021/04/09 05:40:20;;;;;;;9.10;4.38;;;4.50;79.40;;;;;;5024428;28;20036;-74
2021/04/09 05:42:46;;;;;;;8.63;3.83;;;4.50;79.20;;;;;;5024764;28;20503;-74
2021/04/09 05:45:12;;;;;;;10.65;4.05;;;4.60;79.50;;;;;;5025616;28;20029;-73
2021/04/09 05:47:38;;;;;;;6.30;4.03;;;4.60;79.50;;;;;;5030177;28;20027;-74
2021/04/09 05:50:04;;;;;;;7.22;4.20;;;4.60;79.80;;;;;;5028670;28;20395;-73
2021/04/09 05:52:30;;;;;;;9.02;4.35;;;4.60;79.30;;;;;;5024759;28;20044;-74
2021/04/09 05:54:55;;;;;;;6.95;4.00;;;4.70;78.50;;;;;;5022299;28;20030;-74
2021/04/09 05:57:21;;;;;;;7.57;4.55;;;4.70;78.10;;;;;;5016867;28;20030;-73
2021/04/09 05:59:47;;;;;;;7.22;4.00;;;4.80;78.50;;;;;;5025638;28;20034;-74
2021/04/09 06:02:13;;;;;;;9.45;4.38;;;4.80;78.50;;;;;;5027267;28;20037;-74
2021/04/09 06:04:41;;;;;;;8.70;3.78;;;4.90;78.00;;;;;;5022338;28;20198;-74
2021/04/09 06:07:06;;;;;;;8.15;4.00;;;5.00;77.90;;;;;;5029383;28;20044;-73
2021/04/09 06:09:32;;;;;;;6.95;4.18;;;5.00;77.00;;;;;;5021450;28;20033;-73
2021/04/09 06:11:58;;;;;;;7.25;4.30;;;5.10;76.70;;;;;;5025253;28;20049;-73
2021/04/09 06:14:25;;;;;;;9.35;4.85;;;5.10;76.70;;;;;;5026544;28;20108;-74
2021/04/09 06:16:51;;;;;;;7.25;4.25;;;5.10;76.80;;;;;;5028192;28;20063;-73
2021/04/09 06:19:17;;;;;;;11.40;5.00;;;5.20;76.40;;;;;;5018745;28;20216;-73
2021/04/09 06:21:43;;;;;;;8.85;4.13;;;5.20;76.60;;;;;;5029169;28;20477;-73
2021/04/09 06:24:09;;;;;;;7.75;4.55;;;5.30;76.00;;;;;;5022435;28;20029;-72
2021/04/09 06:26:34;;;;;;;10.23;4.68;;;5.30;75.80;;;;;;5035646;28;20030;-73
2021/04/09 06:29:00;;;;;;;9.65;4.57;;;5.30;76.20;;;;;;5024219;28;20396;-73
2021/04/09 06:31:25;;;;;;;8.02;4.75;;;5.30;75.90;;;;;;5027440;28;20021;-73
2021/04/09 06:33:51;;;;;;;10.02;4.22;;;5.40;75.90;;;;;;5023786;28;20033;-73
2021/04/09 06:36:16;;;;;;;11.02;4.88;;;5.50;75.40;;;;;;5026168;28;20085;-73
2021/04/09 06:38:42;;;;;;;12.18;5.82;;;5.50;75.50;;;;;;5027127;28;20473;-73
2021/04/09 06:41:09;;;;;;;7.28;4.70;;;5.50;75.30;;;;;;5021415;28;20034;-74
2021/04/09 06:43:35;;;;;;;9.07;5.00;;;5.50;75.20;;;;;;5024549;28;20389;-73
2021/04/09 06:46:01;;;;;;;8.68;4.68;;;5.60;74.90;;;;;;5022662;28;20120;-73
2021/04/09 06:48:27;;;;;;;8.70;3.97;;;5.70;74.50;;;;;;5021985;28;20612;-73
2021/04/09 06:50:53;;;;;;;11.77;4.97;;;5.70;74.60;;;;;;5015734;28;20107;-72
2021/04/09 06:53:19;;;;;;;9.18;4.80;;;5.80;74.30;;;;;;5020241;28;20067;-71
2021/04/09 06:55:46;;;;;;;8.65;4.40;;;6.00;74.90;;;;;;5023939;28;20049;-74
2021/04/09 06:58:14;;;;;;;11.05;4.50;;;6.10;73.00;;;;;;5017900;28;20091;-74
2021/04/09 07:00:41;;;;;;;12.07;4.47;;;6.20;72.90;;;;;;5029100;28;20506;-73
2021/04/09 07:03:10;;;;;;;8.48;4.72;;;6.20;72.50;;;;;;5025681;28;20125;-73
2021/04/09 07:05:37;;;;;;;9.93;4.57;;;6.30;72.20;;;;;;5024689;28;20029;-72
2021/04/09 07:08:02;;;;;;;8.32;4.55;;;6.40;71.60;;;;;;5026851;28;20148;-71
2021/04/09 07:10:28;;;;;;;6.47;4.25;;;6.50;71.10;;;;;;5022021;28;20136;-73
2021/04/09 07:13:07;;;;;;;9.13;4.65;;;6.50;71.20;;;;;;5024653;28;20040;-72
2021/04/09 07:15:42;;;;;;;9.18;4.97;;;6.60;71.40;;;;;;5022169;28;20018;-72
2021/04/09 07:18:09;;;;;;;7.10;4.60;;;6.60;71.00;;;;;;5023470;28;20032;-72
2021/04/09 07:20:36;;;;;;;12.80;5.13;;;6.60;70.70;;;;;;5024849;28;20034;-72
2021/04/09 07:23:03;;;;;;;11.93;4.80;;;6.60;71.00;;;;;;5028215;28;20104;-73
2021/04/09 07:25:44;;;;;;;8.90;4.85;;;6.60;70.60;;;;;;5026974;28;20037;-73
2021/04/09 07:28:19;;;;;;;7.68;4.40;;;6.70;71.00;;;;;;5022789;28;20029;-76
2021/04/09 07:30:51;;;;;;;8.32;4.60;;;6.70;70.90;;;;;;5021259;28;20045;-74
2021/04/09 07:33:22;;;;;;;6.65;4.10;;;6.80;71.10;;;;;;5023961;28;20060;-77
2021/04/09 07:35:54;;;;;;;10.88;5.13;;;6.90;70.60;;;;;;5027861;28;20033;-77
2021/04/09 07:38:22;;;;;;;8.73;4.57;;;7.00;69.80;;;;;;5021831;28;20633;-76
2021/04/09 07:41:03;;;;;;;7.35;4.80;;;7.10;69.80;;;;;;5024461;28;20037;-77
2021/04/09 07:43:39;;;;;;;12.57;4.83;;;7.10;69.90;;;;;;5022475;28;20034;-74
2021/04/09 07:46:06;;;;;;;10.45;4.95;;;7.20;69.00;;;;;;5019087;28;20472;-74
2021/04/09 07:48:37;;;;;;;8.07;4.65;;;7.20;68.20;;;;;;5029368;28;20049;-73
2021/04/09 07:51:04;;;;;;;9.05;4.72;;;7.30;68.50;;;;;;5021855;28;20033;-73
2021/04/09 07:53:30;;;;;;;7.10;4.15;;;7.40;68.20;;;;;;5026779;28;20710;-73
2021/04/09 07:56:24;;;;;;;12.43;4.65;;;7.40;68.10;;;;;;5024477;28;20021;-74
2021/04/09 07:58:56;;;;;;;9.88;4.15;;;7.60;67.60;;;;;;5023360;28;20044;-73
2021/04/09 08:01:26;;;;;;;7.55;4.15;;;7.60;67.70;;;;;;5025751;28;20029;-74
2021/04/09 08:03:52;;;;;;;10.88;4.57;;;7.70;66.50;;;;;;5028344;28;20037;-73
2021/04/09 08:06:21;;;;;;;11.63;4.68;;;7.80;67.50;;;;;;5023504;28;20045;-73
2021/04/09 08:08:46;;;;;;;7.22;4.43;;;7.90;66.60;;;;;;5028846;28;20067;-73
2021/04/09 08:11:21;;;;;;;13.80;4.63;;;8.00;66.60;;;;;;5030829;28;20096;-74
2021/04/09 08:14:04;;;;;;;8.40;4.50;;;8.00;66.10;;;;;;5031302;28;20026;-73
2021/04/09 08:16:37;;;;;;;12.18;4.93;;;8.20;66.10;;;;;;5031797;28;20025;-74
2021/04/09 08:19:04;;;;;;;8.60;4.38;;;8.30;65.60;;;;;;5035120;28;20480;-72
2021/04/09 08:21:31;;;;;;;8.27;4.45;;;8.40;65.10;;;;;;5033473;28;20524;-72
2021/04/09 08:23:57;;;;;;;12.52;5.32;;;8.50;65.60;;;;;;5028889;28;20038;-72
2021/04/09 08:26:24;;;;;;;9.13;5.00;;;8.60;64.30;;;;;;5030672;28;20033;-71
2021/04/09 08:28:51;;;;;;;9.85;5.10;;;8.70;64.80;;;;;;5035181;28;20030;-72
2021/04/09 08:31:17;;;;;;;8.60;4.72;;;8.90;63.50;;;;;;5024255;28;20042;-71
2021/04/09 08:33:45;;;;;;;9.90;4.25;;;9.00;63.40;;;;;;5035293;28;20439;-72
2021/04/09 08:36:11;;;;;;;7.53;4.47;;;9.10;62.40;;;;;;5040592;28;20071;-71
2021/04/09 08:38:37;;;;;;;8.88;4.50;;;9.20;61.60;;;;;;5034240;28;20056;-72
2021/04/09 08:41:02;;;;;;;7.80;4.80;;;9.20;62.30;;;;;;5040453;28;20065;-70
2021/04/09 08:43:42;;;;;;;12.95;4.68;;;9.30;61.50;;;;;;5022864;28;20029;-72
2021/04/09 08:46:08;;;;;;;10.50;4.35;;;9.30;61.40;;;;;;5019888;28;20036;-70
2021/04/09 08:48:36;;;;;;;7.50;4.60;;;9.30;61.50;;;;;;5034446;28;20093;-75
2021/04/09 08:51:03;;;;;;;9.02;4.68;;;9.30;61.70;;;;;;5030080;28;20511;-73
2021/04/09 08:53:31;;;;;;;6.72;4.07;;;9.40;62.00;;;;;;5031884;28;20033;-76
2021/04/09 08:55:56;;;;;;;8.85;4.35;;;9.40;61.40;;;;;;5030271;28;20156;-77
2021/04/09 08:58:22;;;;;;;6.63;3.85;;;9.60;62.00;;;;;;5033136;28;20052;-76
2021/04/09 09:00:53;;;;;;;7.15;4.25;;;9.70;61.30;;;;;;5028807;28;20049;-74
2021/04/09 09:03:28;;;;;;;15.23;4.75;;;9.90;60.90;;;;;;5026066;28;20052;-75
2021/04/09 09:06:00;;;;;;;8.23;4.72;;;10.00;60.40;;;;;;5031537;28;20119;-75
2021/04/09 09:08:41;;;;;;;5.93;3.35;;;10.10;61.00;;;;;;5030582;28;20171;-73
2021/04/09 09:11:07;;;;;;;10.45;4.68;;;10.20;59.90;;;;;;5044156;28;20117;-74
2021/04/09 09:13:49;;;;;;;6.47;3.97;;;10.20;59.60;;;;;;5039803;28;20033;-75
2021/04/09 09:16:18;;;;;;;10.65;4.65;;;10.20;59.30;;;;;;5036238;28;20426;-73
2021/04/09 09:18:49;;;;;;;9.77;4.68;;;10.20;59.20;;;;;;5028062;28;20029;-73
2021/04/09 09:21:15;;;;;;;5.95;4.50;;;10.20;59.50;;;;;;5029010;28;20391;-73
2021/04/09 09:23:46;;;;;;;11.35;4.22;;;10.30;59.20;;;;;;5035102;28;20147;-74
2021/04/09 09:26:30;;;;;;;9.48;4.53;;;10.40;59.20;;;;;;5029830;28;20033;-74
2021/04/09 09:29:07;;;;;;;8.60;4.65;;;10.50;59.20;;;;;;5033258;28;20026;-74
2021/04/09 09:31:35;;;;;;;9.18;4.43;;;10.60;58.90;;;;;;5030163;28;20037;-74
2021/04/09 09:34:19;;;;;;;7.38;4.68;;;10.60;59.00;;;;;;5034253;28;20439;-74
2021/04/09 09:37:18;;;;;;;7.70;4.28;;;10.80;58.80;;;;;;5031117;28;20083;-75
2021/04/09 09:39:47;;;;;;;7.32;4.53;;;11.00;58.30;;;;;;5020273;28;20527;-74
2021/04/09 09:42:13;;;;;;;8.70;4.38;;;11.10;57.30;;;;;;5025960;28;20506;-74
2021/04/09 09:44:39;;;;;;;10.18;4.85;;;11.20;57.00;;;;;;5034066;28;20510;-73
2021/04/09 09:47:22;;;;;;;10.57;4.60;;;11.20;57.50;;;;;;5022703;28;20034;-74
2021/04/09 09:50:10;;;;;;;7.55;4.80;;;11.30;57.00;;;;;;5018890;28;20042;-73
2021/04/09 09:53:05;;;;;;;13.85;5.13;;;11.40;56.90;;;;;;5024663;28;20104;-75
2021/04/09 09:55:40;;;;;;;13.43;5.05;;;11.40;56.60;;;;;;5030036;28;20096;-74
2021/04/09 09:58:26;;;;;;;10.52;4.97;;;11.60;56.60;;;;;;5030924;28;20103;-74
2021/04/09 10:00:56;;;;;;;10.43;4.90;;;11.70;56.90;;;;;;5025131;28;20060;-73
2021/04/09 10:03:30;;;;;;;11.75;4.85;;;11.80;56.20;;;;;;5033076;28;20083;-74
2021/04/09 10:06:08;;;;;;;9.93;5.43;;;11.90;56.40;;;;;;5033265;28;20040;-74
2021/04/09 10:08:35;;;;;;;12.88;5.10;;;12.00;56.10;;;;;;5036970;28;20029;-75
2021/04/09 10:11:14;;;;;;;10.82;4.60;;;12.10;55.70;;;;;;5031045;28;20052;-74
2021/04/09 10:13:42;;;;;;;8.35;4.95;;;12.10;55.70;;;;;;5029087;28;20099;-72
2021/04/09 10:16:10;;;;;;;8.65;4.95;;;12.10;55.40;;;;;;5026147;28;20021;-72
2021/04/09 10:18:37;;;;;;;7.90;5.00;;;12.10;56.10;;;;;;5033922;28;20412;-71
2021/04/09 10:21:18;;;;;;;8.70;4.90;;;12.10;55.50;;;;;;5028561;28;20112;-72
2021/04/09 10:23:46;;;;;;;7.30;4.65;;;12.30;54.90;;;;;;5032792;28;20562;-73
2021/04/09 10:26:15;;;;;;;6.90;4.63;;;12.20;54.70;;;;;;5039156;28;20083;-72
2021/04/09 10:28:42;;;;;;;11.30;4.70;;;12.10;55.40;;;;;;5023233;28;20037;-72
2021/04/09 10:31:11;;;;;;;8.30;5.20;;;12.20;56.00;;;;;;5009900;28;20075;-73
2021/04/09 10:33:41;;;;;;;7.18;4.70;;;12.40;54.80;;;;;;5009754;28;20034;-72
2021/04/09 10:36:28;;;;;;;6.57;4.65;;;12.50;54.10;;;;;;5013273;28;20029;-72
2021/04/09 10:38:56;;;;;;;6.65;4.55;;;12.60;54.70;;;;;;5028416;28;20025;-73
2021/04/09 10:41:26;;;;;;;7.95;4.53;;;12.70;54.60;;;;;;5029279;28;20041;-73
2021/04/09 10:44:03;;;;;;;7.30;4.55;;;12.80;54.10;;;;;;5022219;28;20025;-73
2021/04/09 10:46:31;;;;;;;10.25;4.68;;;12.80;54.10;;;;;;5024484;28;20032;-73
2021/04/09 10:49:19;;;;;;;6.38;3.25;;;12.90;54.20;;;;;;5029216;28;20168;-73
2021/04/09 10:51:50;;;;;;;9.43;4.28;;;13.00;54.30;;;;;;5028471;28;20021;-73
2021/04/09 10:54:19;;;;;;;5.68;4.15;;;13.20;53.80;;;;;;5028595;28;20042;-73
2021/04/09 10:56:59;;;;;;;5.55;3.95;;;13.40;53.50;;;;;;5028900;28;20033;-72
2021/04/09 10:59:40;;;;;;;8.30;4.57;;;13.50;53.90;;;;;;5032776;28;20029;-72
2021/04/09 11:02:08;;;;;;;6.30;3.67;;;13.60;53.00;;;;;;5021198;28;20041;-73
2021/04/09 11:04:48;;;;;;;10.73;4.57;;;13.60;53.40;;;;;;5034397;28;20025;-73
2021/04/09 11:07:14;;;;;;;8.27;4.13;;;13.70;53.60;;;;;;5033092;28;20062;-72
2021/04/09 11:09:47;;;;;;;9.00;4.40;;;13.90;52.60;;;;;;5029011;28;20038;-72
2021/04/09 11:12:21;;;;;;;9.90;4.43;;;14.10;52.40;;;;;;5029055;28;20396;-71
2021/04/09 11:14:49;;;;;;;6.32;3.55;;;14.20;51.70;;;;;;5033494;28;20037;-72
2021/04/09 11:17:26;;;;;;;9.82;4.13;;;14.40;51.50;;;;;;5029111;28;20051;-71
2021/04/09 11:19:55;;;;;;;6.00;3.65;;;14.50;51.10;;;;;;5028207;28;20366;-71
2021/04/09 11:22:22;;;;;;;6.70;3.20;;;14.50;51.40;;;;;;5028942;28;20036;-71
2021/04/09 11:25:02;;;;;;;6.15;3.25;;;14.60;51.80;;;;;;5023140;28;20058;-71
2021/04/09 11:27:33;;;;;;;5.53;3.50;;;14.80;51.30;;;;;;5027015;28;20049;-72
2021/04/09 11:30:09;;;;;;;7.45;4.57;;;15.00;50.20;;;;;;5029072;28;20033;-72
2021/04/09 11:32:40;;;;;;;8.30;4.20;;;14.90;50.00;;;;;;5021759;28;20186;-72
2021/04/09 11:35:11;;;;;;;6.00;4.03;;;14.90;49.90;;;;;;5026295;28;20076;-72
2021/04/09 11:37:52;;;;;;;6.93;3.90;;;15.00;51.00;;;;;;5032388;28;20492;-72
2021/04/09 11:40:38;;;;;;;6.15;4.25;;;15.20;50.30;;;;;;5032678;28;20033;-73
2021/04/09 11:43:08;;;;;;;8.40;4.18;;;15.60;49.20;;;;;;5032796;28;20105;-72
2021/04/09 11:45:41;;;;;;;5.80;2.92;;;15.90;50.10;;;;;;5036397;28;20032;-74
2021/04/09 11:48:26;;;;;;;9.63;4.25;;;16.10;48.10;;;;;;5039863;28;20095;-73
2021/04/09 11:51:24;;;;;;;6.20;3.28;;;16.40;47.80;;;;;;5032799;28;20033;-73
2021/04/09 11:54:04;;;;;;;6.40;3.55;;;16.70;47.20;;;;;;5030900;28;20164;-73
2021/04/09 11:56:38;;;;;;;4.88;3.28;;;16.60;45.70;;;;;;5034564;28;20104;-72
2021/04/09 11:59:15;;;;;;;5.63;3.13;;;16.40;46.80;;;;;;5032239;28;20055;-73
2021/04/09 12:01:41;;;;;;;6.18;3.15;;;16.40;47.00;;;;;;5035628;28;20496;-73
2021/04/09 12:04:27;;;;;;;6.28;3.78;;;16.80;46.40;;;;;;5025804;28;20504;-73
2021/04/09 12:06:53;;;;;;;6.60;3.72;;;17.20;46.00;;;;;;5021480;28;20030;-74
2021/04/09 12:09:18;;;;;;;5.65;3.50;;;17.80;44.70;;;;;;5028775;28;20175;-74
2021/04/09 12:11:44;;;;;;;5.65;3.65;;;18.30;44.00;;;;;;5031137;28;20484;-73
2021/04/09 12:14:09;;;;;;;5.82;4.18;;;18.50;42.90;;;;;;5031938;28;20036;-73
2021/04/09 12:16:35;;;;;;;5.30;3.70;;;18.60;42.50;;;;;;5032199;28;20491;-73
2021/04/09 12:19:00;;;;;;;6.22;3.67;;;18.60;42.20;;;;;;5031909;28;20069;-73
2021/04/09 12:21:26;;;;;;;6.65;4.00;;;18.80;41.80;;;;;;5037455;28;20029;-73
2021/04/09 12:23:51;;;;;;;6.28;3.90;;;18.70;41.20;;;;;;5032195;28;20041;-72
2021/04/09 12:26:17;;;;;;;6.10;3.70;;;18.60;42.00;;;;;;5032377;28;20021;-71
2021/04/09 12:28:42;;;;;;;5.93;3.92;;;18.90;41.70;;;;;;5031190;28;20455;-73
2021/04/09 12:31:08;;;;;;;4.97;3.58;;;19.20;41.00;;;;;;5032800;28;20033;-73
2021/04/09 12:33:33;;;;;;;5.35;3.90;;;19.50;40.50;;;;;;5022132;28;20025;-73
2021/04/09 12:35:59;;;;;;;6.30;4.25;;;19.50;39.70;;;;;;5031692;28;20104;-72
2021/04/09 12:38:24;;;;;;;7.68;4.38;;;19.20;40.20;;;;;;5031790;28;20668;-72
2021/04/09 12:40:50;;;;;;;7.95;3.90;;;18.70;41.00;;;;;;5031119;28;20050;-73
2021/04/09 12:43:15;;;;;;;5.63;3.70;;;18.70;41.00;;;;;;5031341;28;20037;-73
2021/04/09 12:45:41;;;;;;;6.25;4.00;;;18.90;39.40;;;;;;5023487;28;20033;-72
2021/04/09 12:48:06;;;;;;;5.95;3.70;;;19.40;39.20;;;;;;5030141;28;20087;-73
2021/04/09 12:50:32;;;;;;;6.55;4.45;;;19.70;38.30;;;;;;5030550;28;20040;-73
2021/04/09 12:52:58;;;;;;;5.55;4.20;;;19.80;37.60;;;;;;5018672;28;20030;-73
2021/04/09 12:55:24;;;;;;;5.38;3.88;;;19.70;38.10;;;;;;5030073;28;20053;-73
2021/04/09 12:57:49;;;;;;;6.72;4.20;;;20.00;38.90;;;;;;5030434;28;20220;-73
2021/04/09 13:00:15;;;;;;;7.43;4.50;;;20.40;37.70;;;;;;5031681;28;20079;-73
2021/04/09 13:02:41;;;;;;;6.38;3.95;;;21.00;36.90;;;;;;5040796;28;20033;-73